sensor_id;sensor_type;location;lat;lon;timestamp;pressure;altitude;pressure_sealevel;temperature;humidity
29169;BME280;16219;42.864;23.360;2022-08-19T00:01:29;95591.56;;;19.10;100.00
29169;BME280;16219;42.864;23.360;2022-08-19T00:04:01;95592.78;;;19.16;100.00
29169;BME280;16219;42.864;23.360;2022-08-19T00:06:29;95591.97;;;19.12;100.00
29169;BME280;16219;42.864;23.360;2022-08-19T00:08:58;95603.75;;;19.07;100.00
29169;BME280;16219;42.864;23.360;2022-08-19T00:11:28;95600.97;;;18.93;100.00
29169;BME280;16219;42.864;23.360;2022-08-19T00:13:57;95600.94;;;18.89;100.00
29169;BME280;16219;42.864;23.360;2022-08-19T00:16:25;95612.16;;;19.06;100.00
29169;BME280;16219;42.864;23.360;2022-08-19T00:18:54;95604.09;;;19.02;100.00
29169;BME280;16219;42.864;23.360;2022-08-19T00:21:25;95606.34;;;18.96;100.00
29169;BME280;16219;42.864;23.360;2022-08-19T00:23:54;95610.19;;;18.99;100.00
29169;BME280;16219;42.864;23.360;2022-08-19T00:26:24;95612.47;;;18.97;100.00
29169;BME280;16219;42.864;23.360;2022-08-19T00:28:52;95602.50;;;18.94;100.00
29169;BME280;16219;42.864;23.360;2022-08-19T00:31:21;95610.09;;;18.88;100.00
29169;BME280;16219;42.864;23.360;2022-08-19T00:33:50;95609.38;;;18.91;100.00
29169;BME280;16219;42.864;23.360;2022-08-19T00:36:19;95592.41;;;18.77;100.00
29169;BME280;16219;42.864;23.360;2022-08-19T00:38:50;95606.88;;;18.72;100.00
29169;BME280;16219;42.864;23.360;2022-08-19T00:41:21;95606.00;;;18.64;100.00
29169;BME280;16219;42.864;23.360;2022-08-19T00:44:00;95604.28;;;18.45;100.00
29169;BME280;16219;42.864;23.360;2022-08-19T00:46:30;95602.56;;;18.64;100.00
29169;BME280;16219;42.864;23.360;2022-08-19T00:49:00;95610.56;;;18.64;100.00
29169;BME280;16219;42.864;23.360;2022-08-19T00:51:30;95602.81;;;18.52;100.00
29169;BME280;16219;42.864;23.360;2022-08-19T00:54:02;95606.28;;;18.56;100.00
29169;BME280;16219;42.864;23.360;2022-08-19T00:56:30;95607.84;;;18.57;100.00
29169;BME280;16219;42.864;23.360;2022-08-19T00:59:01;95610.53;;;18.57;100.00
29169;BME280;16219;42.864;23.360;2022-08-19T01:01:35;95576.75;;;18.41;100.00
29169;BME280;16219;42.864;23.360;2022-08-19T01:04:04;95597.16;;;18.57;100.00
29169;BME280;16219;42.864;23.360;2022-08-19T01:06:32;95595.13;;;18.46;100.00
29169;BME280;16219;42.864;23.360;2022-08-19T01:09:02;95587.84;;;18.43;100.00
29169;BME280;16219;42.864;23.360;2022-08-19T01:11:31;95601.19;;;18.43;100.00
29169;BME280;16219;42.864;23.360;2022-08-19T01:14:02;95593.56;;;18.42;100.00
29169;BME280;16219;42.864;23.360;2022-08-19T01:16:31;95591.97;;;18.37;100.00
29169;BME280;16219;42.864;23.360;2022-08-19T01:19:00;95599.22;;;18.37;100.00
29169;BME280;16219;42.864;23.360;2022-08-19T01:21:32;95594.56;;;18.30;100.00
29169;BME280;16219;42.864;23.360;2022-08-19T01:24:07;95584.00;;;18.07;100.00
29169;BME280;16219;42.864;23.360;2022-08-19T01:26:39;95569.69;;;17.92;100.00
29169;BME280;16219;42.864;23.360;2022-08-19T01:29:10;95576.38;;;18.09;100.00
29169;BME280;16219;42.864;23.360;2022-08-19T01:31:38;95591.38;;;18.17;100.00
29169;BME280;16219;42.864;23.360;2022-08-19T01:34:07;95591.34;;;18.14;100.00
29169;BME280;16219;42.864;23.360;2022-08-19T01:36:38;95590.13;;;18.08;100.00
29169;BME280;16219;42.864;23.360;2022-08-19T01:39:12;95578.75;;;18.14;100.00
29169;BME280;16219;42.864;23.360;2022-08-19T01:41:39;95596.38;;;18.19;100.00
29169;BME280;16219;42.864;23.360;2022-08-19T01:44:09;95598.59;;;18.17;100.00
29169;BME280;16219;42.864;23.360;2022-08-19T01:46:38;95598.53;;;18.10;100.00
29169;BME280;16219;42.864;23.360;2022-08-19T01:49:06;95605.38;;;18.07;100.00
29169;BME280;16219;42.864;23.360;2022-08-19T01:51:34;95600.69;;;18.01;100.00
29169;BME280;16219;42.864;23.360;2022-08-19T01:54:02;95602.28;;;18.05;100.00
29169;BME280;16219;42.864;23.360;2022-08-19T01:56:31;95603.84;;;18.06;100.00
29169;BME280;16219;42.864;23.360;2022-08-19T01:59:01;95606.03;;;18.01;100.00
29169;BME280;16219;42.864;23.360;2022-08-19T02:01:29;95606.03;;;18.01;100.00
29169;BME280;16219;42.864;23.360;2022-08-19T02:03:58;95591.88;;;17.96;100.00
29169;BME280;16219;42.864;23.360;2022-08-19T02:06:29;95609.06;;;17.99;100.00
29169;BME280;16219;42.864;23.360;2022-08-19T02:08:57;95609.28;;;17.87;100.00
29169;BME280;16219;42.864;23.360;2022-08-19T02:11:29;95605.84;;;17.86;100.00
29169;BME280;16219;42.864;23.360;2022-08-19T02:14:00;95596.00;;;17.90;100.00
29169;BME280;16219;42.864;23.360;2022-08-19T02:16:29;95607.38;;;17.87;100.00
29169;BME280;16219;42.864;23.360;2022-08-19T02:19:00;95613.50;;;17.88;100.00
29169;BME280;16219;42.864;23.360;2022-08-19T02:21:29;95611.56;;;17.85;100.00
29169;BME280;16219;42.864;23.360;2022-08-19T02:23:59;95607.50;;;17.68;100.00
29169;BME280;16219;42.864;23.360;2022-08-19T02:26:28;95604.81;;;17.68;100.00
29169;BME280;16219;42.864;23.360;2022-08-19T02:28:58;95618.31;;;17.79;100.00
29169;BME280;16219;42.864;23.360;2022-08-19T02:31:27;95622.41;;;17.72;100.00
29169;BME280;16219;42.864;23.360;2022-08-19T02:33:55;95605.53;;;17.65;100.00
29169;BME280;16219;42.864;23.360;2022-08-19T02:36:24;95620.84;;;17.68;100.00
29169;BME280;16219;42.864;23.360;2022-08-19T02:38:55;95610.94;;;17.68;100.00
29169;BME280;16219;42.864;23.360;2022-08-19T02:41:24;95618.50;;;17.66;100.00
29169;BME280;16219;42.864;23.360;2022-08-19T02:43:53;95614.25;;;17.62;100.00
29169;BME280;16219;42.864;23.360;2022-08-19T02:46:28;95611.59;;;17.62;100.00
29169;BME280;16219;42.864;23.360;2022-08-19T02:48:59;95608.56;;;17.63;100.00
29169;BME280;16219;42.864;23.360;2022-08-19T02:51:29;95615.38;;;17.61;100.00
29169;BME280;16219;42.864;23.360;2022-08-19T02:53:59;95613.84;;;17.60;100.00
29169;BME280;16219;42.864;23.360;2022-08-19T02:56:27;95617.69;;;17.62;100.00
29169;BME280;16219;42.864;23.360;2022-08-19T02:58:55;95613.81;;;17.56;100.00
29169;BME280;16219;42.864;23.360;2022-08-19T03:01:26;95622.88;;;17.52;100.00
29169;BME280;16219;42.864;23.360;2022-08-19T03:03:54;95621.38;;;17.54;100.00
29169;BME280;16219;42.864;23.360;2022-08-19T03:06:23;95615.28;;;17.54;100.00
29169;BME280;16219;42.864;23.360;2022-08-19T03:08:51;95623.28;;;17.54;100.00
29169;BME280;16219;42.864;23.360;2022-08-19T03:11:21;95620.53;;;17.46;100.00
29169;BME280;16219;42.864;23.360;2022-08-19T03:13:49;95609.03;;;17.42;100.00
29169;BME280;16219;42.864;23.360;2022-08-19T03:16:17;95616.59;;;17.40;100.00
29169;BME280;16219;42.864;23.360;2022-08-19T03:18:46;95593.72;;;17.13;100.00
29169;BME280;16219;42.864;23.360;2022-08-19T03:21:15;95579.56;;;17.09;100.00
29169;BME280;16219;42.864;23.360;2022-08-19T03:23:42;95613.47;;;17.35;100.00
29169;BME280;16219;42.864;23.360;2022-08-19T03:26:09;95613.41;;;17.31;100.00
29169;BME280;16219;42.864;23.360;2022-08-19T03:28:37;95606.06;;;17.24;100.00
29169;BME280;16219;42.864;23.360;2022-08-19T03:31:06;95606.56;;;17.30;100.00
29169;BME280;16219;42.864;23.360;2022-08-19T03:33:34;95611.47;;;17.28;100.00
29169;BME280;16219;42.864;23.360;2022-08-19T03:36:06;95612.97;;;17.26;100.00
29169;BME280;16219;42.864;23.360;2022-08-19T03:38:35;95611.53;;;17.32;100.00
29169;BME280;16219;42.864;23.360;2022-08-19T03:41:05;95617.28;;;17.34;100.00
29169;BME280;16219;42.864;23.360;2022-08-19T03:43:34;95621.47;;;17.35;100.00
29169;BME280;16219;42.864;23.360;2022-08-19T03:46:04;95616.50;;;17.33;100.00
29169;BME280;16219;42.864;23.360;2022-08-19T03:48:32;95619.47;;;17.28;100.00
29169;BME280;16219;42.864;23.360;2022-08-19T03:50:59;95633.69;;;17.36;100.00
29169;BME280;16219;42.864;23.360;2022-08-19T03:53:30;95633.38;;;17.41;100.00
29169;BME280;16219;42.864;23.360;2022-08-19T03:55:58;95644.41;;;17.39;100.00
29169;BME280;16219;42.864;23.360;2022-08-19T03:58:27;95642.81;;;17.35;100.00
29169;BME280;16219;42.864;23.360;2022-08-19T04:00:56;95637.78;;;17.30;100.00
29169;BME280;16219;42.864;23.360;2022-08-19T04:03:23;95653.22;;;17.43;100.00
29169;BME280;16219;42.864;23.360;2022-08-19T04:05:52;95646.47;;;17.49;100.00
29169;BME280;16219;42.864;23.360;2022-08-19T04:08:20;95652.63;;;17.54;100.00
29169;BME280;16219;42.864;23.360;2022-08-19T04:10:49;95648.09;;;17.58;100.00
29169;BME280;16219;42.864;23.360;2022-08-19T04:13:18;95649.25;;;17.57;100.00
29169;BME280;16219;42.864;23.360;2022-08-19T04:15:45;95656.53;;;17.60;100.00
29169;BME280;16219;42.864;23.360;2022-08-19T04:18:13;95653.63;;;17.68;100.00
29169;BME280;16219;42.864;23.360;2022-08-19T04:20:42;95653.31;;;17.73;100.00
29169;BME280;16219;42.864;23.360;2022-08-19T04:23:09;95656.88;;;17.81;100.00
29169;BME280;16219;42.864;23.360;2022-08-19T04:25:38;95643.09;;;17.79;100.00
29169;BME280;16219;42.864;23.360;2022-08-19T04:28:08;95663.13;;;17.92;100.00
29169;BME280;16219;42.864;23.360;2022-08-19T04:30:40;95660.44;;;17.92;100.00
29169;BME280;16219;42.864;23.360;2022-08-19T04:33:08;95658.66;;;18.00;100.00
29169;BME280;16219;42.864;23.360;2022-08-19T04:35:37;95662.47;;;18.63;100.00
29169;BME280;16219;42.864;23.360;2022-08-19T04:38:05;95656.38;;;19.40;100.00
29169;BME280;16219;42.864;23.360;2022-08-19T04:40:33;95659.53;;;20.05;100.00
29169;BME280;16219;42.864;23.360;2022-08-19T04:43:21;95660.94;;;20.54;100.00
29169;BME280;16219;42.864;23.360;2022-08-19T04:45:48;95667.94;;;20.94;100.00
29169;BME280;16219;42.864;23.360;2022-08-19T04:48:15;95654.94;;;21.00;100.00
29169;BME280;16219;42.864;23.360;2022-08-19T04:50:43;95658.75;;;20.95;100.00
29169;BME280;16219;42.864;23.360;2022-08-19T04:53:11;95657.94;;;20.80;100.00
29169;BME280;16219;42.864;23.360;2022-08-19T04:55:41;95658.66;;;20.63;100.00
29169;BME280;16219;42.864;23.360;2022-08-19T04:58:08;95663.25;;;20.62;100.00
29169;BME280;16219;42.864;23.360;2022-08-19T05:00:39;95667.16;;;20.79;100.00
29169;BME280;16219;42.864;23.360;2022-08-19T05:03:06;95663.38;;;21.12;100.00
29169;BME280;16219;42.864;23.360;2022-08-19T05:05:38;95664.22;;;21.41;100.00
29169;BME280;16219;42.864;23.360;2022-08-19T05:08:05;95674.94;;;21.81;100.00
29169;BME280;16219;42.864;23.360;2022-08-19T05:10:34;95676.47;;;21.75;100.00
29169;BME280;16219;42.864;23.360;2022-08-19T05:13:02;95678.00;;;21.58;100.00
29169;BME280;16219;42.864;23.360;2022-08-19T05:15:30;95672.97;;;21.17;100.00
29169;BME280;16219;42.864;23.360;2022-08-19T05:17:59;95659.50;;;20.92;100.00
29169;BME280;16219;42.864;23.360;2022-08-19T05:20:43;95663.75;;;21.00;100.00
29169;BME280;16219;42.864;23.360;2022-08-19T05:23:28;95679.09;;;21.03;100.00
29169;BME280;16219;42.864;23.360;2022-08-19T05:25:55;95680.97;;;20.95;100.00
29169;BME280;16219;42.864;23.360;2022-08-19T05:28:23;95677.19;;;21.07;100.00
29169;BME280;16219;42.864;23.360;2022-08-19T05:30:50;95678.34;;;21.24;100.00
29169;BME280;16219;42.864;23.360;2022-08-19T05:33:22;95676.81;;;21.30;100.00
29169;BME280;16219;42.864;23.360;2022-08-19T05:35:50;95667.63;;;21.20;100.00
29169;BME280;16219;42.864;23.360;2022-08-19T05:38:18;95669.53;;;21.27;100.00
29169;BME280;16219;42.864;23.360;2022-08-19T05:40:45;95669.19;;;21.36;100.00
29169;BME280;16219;42.864;23.360;2022-08-19T05:43:14;95674.94;;;21.41;100.00
29169;BME280;16219;42.864;23.360;2022-08-19T05:45:43;95676.88;;;21.59;100.00
29169;BME280;16219;42.864;23.360;2022-08-19T05:48:11;95668.81;;;21.80;100.00
29169;BME280;16219;42.864;23.360;2022-08-19T05:50:41;95671.06;;;22.03;100.00
29169;BME280;16219;42.864;23.360;2022-08-19T05:53:08;95672.97;;;22.06;100.00
29169;BME280;16219;42.864;23.360;2022-08-19T05:55:35;95672.59;;;22.15;100.00
29169;BME280;16219;42.864;23.360;2022-08-19T05:58:04;95665.66;;;22.21;100.00
29169;BME280;16219;42.864;23.360;2022-08-19T06:00:33;95675.63;;;22.28;100.00
29169;BME280;16219;42.864;23.360;2022-08-19T06:03:00;95665.63;;;22.39;100.00
29169;BME280;16219;42.864;23.360;2022-08-19T06:05:29;95667.50;;;22.42;100.00
29169;BME280;16219;42.864;23.360;2022-08-19T06:07:58;95668.66;;;22.44;100.00
29169;BME280;16219;42.864;23.360;2022-08-19T06:10:25;95671.69;;;22.57;100.00
29169;BME280;16219;42.864;23.360;2022-08-19T06:12:53;95677.81;;;22.68;100.00
29169;BME280;16219;42.864;23.360;2022-08-19T06:15:21;95683.13;;;22.79;100.00
29169;BME280;16219;42.864;23.360;2022-08-19T06:17:51;95678.41;;;23.05;100.00
29169;BME280;16219;42.864;23.360;2022-08-19T06:20:18;95664.81;;;23.23;100.00
29169;BME280;16219;42.864;23.360;2022-08-19T06:22:47;95680.00;;;23.54;100.00
29169;BME280;16219;42.864;23.360;2022-08-19T06:25:18;95652.59;;;23.63;100.00
29169;BME280;16219;42.864;23.360;2022-08-19T06:27:46;95673.97;;;23.88;100.00
29169;BME280;16219;42.864;23.360;2022-08-19T06:30:13;95646.25;;;23.87;100.00
29169;BME280;16219;42.864;23.360;2022-08-19T06:32:40;95668.66;;;24.18;100.00
29169;BME280;16219;42.864;23.360;2022-08-19T06:35:08;95666.59;;;24.30;100.00
29169;BME280;16219;42.864;23.360;2022-08-19T06:37:36;95664.84;;;24.50;100.00
29169;BME280;16219;42.864;23.360;2022-08-19T06:40:04;95669.66;;;24.66;100.00
29169;BME280;16219;42.864;23.360;2022-08-19T06:42:35;95661.03;;;24.78;100.00
29169;BME280;16219;42.864;23.360;2022-08-19T06:45:05;95660.38;;;24.98;100.00
29169;BME280;16219;42.864;23.360;2022-08-19T06:47:34;95664.44;;;25.13;100.00
29169;BME280;16219;42.864;23.360;2022-08-19T06:50:01;95660.13;;;25.19;100.00
29169;BME280;16219;42.864;23.360;2022-08-19T06:52:30;95662.22;;;25.31;100.00
29169;BME280;16219;42.864;23.360;2022-08-19T06:54:58;95660.84;;;25.47;100.00
29169;BME280;16219;42.864;23.360;2022-08-19T06:57:26;95657.16;;;25.60;100.00
29169;BME280;16219;42.864;23.360;2022-08-19T06:59:58;95657.69;;;25.75;100.00
29169;BME280;16219;42.864;23.360;2022-08-19T07:02:26;95659.13;;;25.83;100.00
29169;BME280;16219;42.864;23.360;2022-08-19T07:04:55;95661.28;;;25.92;100.00
29169;BME280;16219;42.864;23.360;2022-08-19T07:07:25;95663.50;;;25.97;100.00
29169;BME280;16219;42.864;23.360;2022-08-19T07:09:53;95648.13;;;25.94;95.06
29169;BME280;16219;42.864;23.360;2022-08-19T07:12:20;95652.59;;;26.04;96.87
29169;BME280;16219;42.864;23.360;2022-08-19T07:14:48;95638.16;;;26.11;99.30
29169;BME280;16219;42.864;23.360;2022-08-19T07:17:17;95653.03;;;26.42;100.00
29169;BME280;16219;42.864;23.360;2022-08-19T07:19:45;95665.44;;;26.60;100.00
29169;BME280;16219;42.864;23.360;2022-08-19T07:22:20;95659.03;;;26.70;100.00
29169;BME280;16219;42.864;23.360;2022-08-19T07:24:48;95653.31;;;26.84;97.24
29169;BME280;16219;42.864;23.360;2022-08-19T07:27:15;95660.03;;;26.96;99.58
29169;BME280;16219;42.864;23.360;2022-08-19T07:29:43;95649.81;;;27.04;93.32
29169;BME280;16219;42.864;23.360;2022-08-19T07:32:11;95646.91;;;27.14;94.02
29169;BME280;16219;42.864;23.360;2022-08-19T07:34:40;95651.25;;;27.28;99.29
29169;BME280;16219;42.864;23.360;2022-08-19T07:37:07;95635.66;;;27.32;94.69
29169;BME280;16219;42.864;23.360;2022-08-19T07:39:36;95645.13;;;27.57;97.26
29169;BME280;16219;42.864;23.360;2022-08-19T07:42:06;95642.47;;;27.70;100.00
29169;BME280;16219;42.864;23.360;2022-08-19T07:44:34;95628.03;;;27.76;94.37
29169;BME280;16219;42.864;23.360;2022-08-19T07:47:04;95634.31;;;28.02;85.91
29169;BME280;16219;42.864;23.360;2022-08-19T07:49:32;95589.91;;;27.83;90.83
29169;BME280;16219;42.864;23.360;2022-08-19T07:52:05;95634.66;;;28.33;90.77
29169;BME280;16219;42.864;23.360;2022-08-19T07:54:34;95631.47;;;28.51;88.05
29169;BME280;16219;42.864;23.360;2022-08-19T07:57:03;95631.06;;;28.65;77.92
29169;BME280;16219;42.864;23.360;2022-08-19T07:59:31;95635.31;;;28.79;80.07
29169;BME280;16219;42.864;23.360;2022-08-19T08:01:58;95631.19;;;28.87;75.27
29169;BME280;16219;42.864;23.360;2022-08-19T08:04:27;95631.66;;;28.99;73.64
29169;BME280;16219;42.864;23.360;2022-08-19T08:07:13;95634.94;;;29.19;73.60
29169;BME280;16219;42.864;23.360;2022-08-19T08:09:58;95635.22;;;29.34;71.46
29169;BME280;16219;42.864;23.360;2022-08-19T08:12:29;95630.09;;;29.49;68.39
29169;BME280;16219;42.864;23.360;2022-08-19T08:14:58;95623.28;;;29.57;68.19
29169;BME280;16219;42.864;23.360;2022-08-19T08:17:29;95622.34;;;29.73;66.33
29169;BME280;16219;42.864;23.360;2022-08-19T08:19:57;95625.91;;;29.82;69.36
29169;BME280;16219;42.864;23.360;2022-08-19T08:22:26;95618.41;;;29.86;67.25
29169;BME280;16219;42.864;23.360;2022-08-19T08:25:23;95611.63;;;29.91;69.67
29169;BME280;16219;42.864;23.360;2022-08-19T08:27:50;95609.41;;;29.99;66.15
29169;BME280;16219;42.864;23.360;2022-08-19T08:30:20;95613.06;;;30.18;67.44
29169;BME280;16219;42.864;23.360;2022-08-19T08:32:48;95605.41;;;30.25;63.93
29169;BME280;16219;42.864;23.360;2022-08-19T08:35:17;95609.56;;;30.39;58.19
29169;BME280;16219;42.864;23.360;2022-08-19T08:37:47;95608.25;;;30.44;62.13
29169;BME280;16219;42.864;23.360;2022-08-19T08:40:19;95610.38;;;30.49;61.33
29169;BME280;16219;42.864;23.360;2022-08-19T08:42:53;95602.88;;;30.62;62.01
29169;BME280;16219;42.864;23.360;2022-08-19T08:45:24;95590.88;;;30.72;59.49
29169;BME280;16219;42.864;23.360;2022-08-19T08:47:54;95601.53;;;30.89;60.41
29169;BME280;16219;42.864;23.360;2022-08-19T08:50:29;95598.84;;;30.98;60.56
29169;BME280;16219;42.864;23.360;2022-08-19T08:53:03;95587.72;;;31.14;61.92
29169;BME280;16219;42.864;23.360;2022-08-19T08:55:33;95588.00;;;31.25;60.50
29169;BME280;16219;42.864;23.360;2022-08-19T08:58:03;95587.16;;;31.28;55.76
29169;BME280;16219;42.864;23.360;2022-08-19T09:00:34;95577.03;;;31.38;59.39
29169;BME280;16219;42.864;23.360;2022-08-19T09:03:03;95582.47;;;31.47;64.70
29169;BME280;16219;42.864;23.360;2022-08-19T09:05:40;95577.50;;;31.55;54.59
29169;BME280;16219;42.864;23.360;2022-08-19T09:08:17;95559.47;;;31.48;53.18
29169;BME280;16219;42.864;23.360;2022-08-19T09:10:52;95579.63;;;31.60;55.40
29169;BME280;16219;42.864;23.360;2022-08-19T09:13:26;95560.56;;;31.69;51.78
29169;BME280;16219;42.864;23.360;2022-08-19T09:16:01;95560.97;;;31.77;51.27
29169;BME280;16219;42.864;23.360;2022-08-19T09:18:39;95557.53;;;31.85;48.90
29169;BME280;16219;42.864;23.360;2022-08-19T09:21:07;95551.16;;;31.89;48.09
29169;BME280;16219;42.864;23.360;2022-08-19T09:23:36;95507.19;;;31.59;48.01
29169;BME280;16219;42.864;23.360;2022-08-19T09:26:07;95543.25;;;32.09;47.65
29169;BME280;16219;42.864;23.360;2022-08-19T09:28:34;95534.16;;;32.12;50.85
29169;BME280;16219;42.864;23.360;2022-08-19T09:31:02;95551.56;;;32.24;46.58
29169;BME280;16219;42.864;23.360;2022-08-19T09:33:29;95550.97;;;32.20;45.39
29169;BME280;16219;42.864;23.360;2022-08-19T09:36:05;95543.53;;;32.29;43.45
29169;BME280;16219;42.864;23.360;2022-08-19T09:38:33;95542.31;;;32.30;45.26
29169;BME280;16219;42.864;23.360;2022-08-19T09:41:07;95539.56;;;32.40;43.37
29169;BME280;16219;42.864;23.360;2022-08-19T09:43:35;95520.16;;;32.38;44.46
29169;BME280;16219;42.864;23.360;2022-08-19T09:46:03;95540.09;;;32.62;43.65
29169;BME280;16219;42.864;23.360;2022-08-19T09:48:32;95529.00;;;32.66;45.36
29169;BME280;16219;42.864;23.360;2022-08-19T09:51:04;95533.03;;;32.79;44.47
29169;BME280;16219;42.864;23.360;2022-08-19T09:53:32;95530.28;;;32.89;43.46
29169;BME280;16219;42.864;23.360;2022-08-19T09:55:59;95527.53;;;32.98;41.12
29169;BME280;16219;42.864;23.360;2022-08-19T09:58:28;95516.59;;;32.98;41.09
29169;BME280;16219;42.864;23.360;2022-08-19T10:00:57;95523.09;;;33.00;42.56
29169;BME280;16219;42.864;23.360;2022-08-19T10:03:26;95511.72;;;33.02;43.87
29169;BME280;16219;42.864;23.360;2022-08-19T10:05:55;95514.63;;;32.98;43.30
29169;BME280;16219;42.864;23.360;2022-08-19T10:08:25;95499.81;;;32.81;43.20
29169;BME280;16219;42.864;23.360;2022-08-19T10:10:54;95517.59;;;32.76;40.49
29169;BME280;16219;42.864;23.360;2022-08-19T10:13:24;95506.50;;;32.71;41.16
29169;BME280;16219;42.864;23.360;2022-08-19T10:15:55;95507.63;;;32.64;41.78
29169;BME280;16219;42.864;23.360;2022-08-19T10:18:23;95499.09;;;32.71;42.20
29169;BME280;16219;42.864;23.360;2022-08-19T10:20:51;95498.69;;;32.64;39.83
29169;BME280;16219;42.864;23.360;2022-08-19T10:23:20;95503.47;;;32.78;40.85
29169;BME280;16219;42.864;23.360;2022-08-19T10:25:48;95457.97;;;32.66;41.65
29169;BME280;16219;42.864;23.360;2022-08-19T10:28:15;95495.91;;;33.06;41.40
29169;BME280;16219;42.864;23.360;2022-08-19T10:30:42;95490.66;;;33.17;41.75
29169;BME280;16219;42.864;23.360;2022-08-19T10:33:11;95490.88;;;33.28;40.25
29169;BME280;16219;42.864;23.360;2022-08-19T10:35:39;95490.69;;;33.32;42.47
29169;BME280;16219;42.864;23.360;2022-08-19T10:38:07;95484.09;;;33.39;40.42
29169;BME280;16219;42.864;23.360;2022-08-19T10:40:34;95472.41;;;33.38;40.17
29169;BME280;16219;42.864;23.360;2022-08-19T10:43:04;95480.00;;;33.43;39.99
29169;BME280;16219;42.864;23.360;2022-08-19T10:45:31;95481.03;;;33.46;41.81
29169;BME280;16219;42.864;23.360;2022-08-19T10:47:59;95477.22;;;33.52;38.87
29169;BME280;16219;42.864;23.360;2022-08-19T10:50:27;95474.22;;;33.65;39.71
29169;BME280;16219;42.864;23.360;2022-08-19T10:53:12;95466.75;;;33.80;37.38
29169;BME280;16219;42.864;23.360;2022-08-19T10:55:40;95464.88;;;33.87;38.84
29169;BME280;16219;42.864;23.360;2022-08-19T10:58:24;95477.59;;;33.90;38.13
29169;BME280;16219;42.864;23.360;2022-08-19T11:00:53;95470.25;;;33.96;39.77
29169;BME280;16219;42.864;23.360;2022-08-19T11:03:20;95480.44;;;33.95;38.56
29169;BME280;16219;42.864;23.360;2022-08-19T11:05:58;95475.72;;;33.96;36.48
29169;BME280;16219;42.864;23.360;2022-08-19T11:08:26;95463.66;;;33.88;37.40
29169;BME280;16219;42.864;23.360;2022-08-19T11:10:54;95466.00;;;33.95;38.49
29169;BME280;16219;42.864;23.360;2022-08-19T11:13:26;95455.91;;;33.86;37.51
29169;BME280;16219;42.864;23.360;2022-08-19T11:15:59;95453.28;;;34.06;40.99
29169;BME280;16219;42.864;23.360;2022-08-19T11:18:26;95453.84;;;34.11;38.02
29169;BME280;16219;42.864;23.360;2022-08-19T11:20:54;95453.84;;;34.25;37.49
29169;BME280;16219;42.864;23.360;2022-08-19T11:23:22;95443.81;;;34.37;35.23
29169;BME280;16219;42.864;23.360;2022-08-19T11:25:50;95447.56;;;34.40;37.20
29169;BME280;16219;42.864;23.360;2022-08-19T11:28:19;95424.16;;;34.39;36.30
29169;BME280;16219;42.864;23.360;2022-08-19T11:30:46;95438.59;;;34.54;37.29
29169;BME280;16219;42.864;23.360;2022-08-19T11:33:13;95439.06;;;34.52;37.86
29169;BME280;16219;42.864;23.360;2022-08-19T11:35:41;95432.44;;;34.59;38.49
29169;BME280;16219;42.864;23.360;2022-08-19T11:38:08;95418.25;;;34.61;37.88
29169;BME280;16219;42.864;23.360;2022-08-19T11:40:37;95418.06;;;34.64;36.65
29169;BME280;16219;42.864;23.360;2022-08-19T11:43:04;95421.41;;;34.74;37.11
29169;BME280;16219;42.864;23.360;2022-08-19T11:45:32;95420.47;;;34.77;37.76
29169;BME280;16219;42.864;23.360;2022-08-19T11:47:59;95419.91;;;34.73;35.38
29169;BME280;16219;42.864;23.360;2022-08-19T11:50:27;95417.66;;;34.71;35.24
29169;BME280;16219;42.864;23.360;2022-08-19T11:52:55;95424.09;;;34.68;35.77
29169;BME280;16219;42.864;23.360;2022-08-19T11:55:22;95366.09;;;34.35;34.93
29169;BME280;16219;42.864;23.360;2022-08-19T11:57:51;95351.72;;;34.40;36.40
29169;BME280;16219;42.864;23.360;2022-08-19T12:00:19;95411.56;;;34.82;36.41
29169;BME280;16219;42.864;23.360;2022-08-19T12:02:46;95405.63;;;34.84;37.40
29169;BME280;16219;42.864;23.360;2022-08-19T12:05:13;95358.94;;;34.57;35.08
29169;BME280;16219;42.864;23.360;2022-08-19T12:07:41;95389.72;;;34.88;35.03
29169;BME280;16219;42.864;23.360;2022-08-19T12:10:09;95391.84;;;34.98;34.71
29169;BME280;16219;42.864;23.360;2022-08-19T12:12:37;95394.66;;;35.04;34.40
29169;BME280;16219;42.864;23.360;2022-08-19T12:15:11;95383.69;;;35.04;35.51
29169;BME280;16219;42.864;23.360;2022-08-19T12:17:39;95388.13;;;35.22;36.11
29169;BME280;16219;42.864;23.360;2022-08-19T12:20:09;95373.72;;;35.27;33.82
29169;BME280;16219;42.864;23.360;2022-08-19T12:22:37;95366.94;;;35.22;34.64
29169;BME280;16219;42.864;23.360;2022-08-19T12:25:07;95382.00;;;35.33;37.20
29169;BME280;16219;42.864;23.360;2022-08-19T12:27:35;95370.84;;;35.42;34.80
29169;BME280;16219;42.864;23.360;2022-08-19T12:30:02;95377.72;;;35.52;34.97
29169;BME280;16219;42.864;23.360;2022-08-19T12:32:31;95367.38;;;35.67;33.97
29169;BME280;16219;42.864;23.360;2022-08-19T12:34:59;95373.06;;;35.64;33.75
29169;BME280;16219;42.864;23.360;2022-08-19T12:37:26;95365.78;;;35.55;34.16
29169;BME280;16219;42.864;23.360;2022-08-19T12:39:55;95371.25;;;35.55;34.42
29169;BME280;16219;42.864;23.360;2022-08-19T12:42:22;95372.78;;;35.56;35.25
29169;BME280;16219;42.864;23.360;2022-08-19T12:44:50;95370.13;;;35.67;34.69
29169;BME280;16219;42.864;23.360;2022-08-19T12:47:17;95373.84;;;35.64;35.01
29169;BME280;16219;42.864;23.360;2022-08-19T12:49:46;95369.31;;;35.61;34.92
29169;BME280;16219;42.864;23.360;2022-08-19T12:52:15;95353.28;;;35.54;34.36
29169;BME280;16219;42.864;23.360;2022-08-19T12:54:42;95356.84;;;35.60;34.70
29169;BME280;16219;42.864;23.360;2022-08-19T12:57:10;95326.50;;;35.43;34.99